TimeCDT,TemperatureF,Dew PointF,Humidity,Sea Level PressureIn,VisibilityMPH,Wind Direction,Wind SpeedMPH,Gust SpeedMPH,PrecipitationIn,Events,Conditions,WindDirDegrees,DateUTC
12:53 AM,32.0,28.9,88,30.42,10.0,Calm,Calm,-,N/A,,Unknown,0,2013-03-14 05:53:00
1:53 AM,35.1,28.9,78,30.41,10.0,Calm,Calm,-,N/A,,Unknown,0,2013-03-14 06:53:00
2:53 AM,32.0,28.9,88,30.41,10.0,Calm,Calm,-,N/A,,Unknown,0,2013-03-14 07:53:00
3:53 AM,30.9,28.9,92,30.41,10.0,Calm,Calm,-,N/A,,Unknown,0,2013-03-14 08:53:00
4:53 AM,32.0,28.0,85,30.40,10.0,Calm,Calm,-,N/A,,Unknown,0,2013-03-14 09:53:00
5:53 AM,32.0,28.9,88,30.41,10.0,Calm,Calm,-,N/A,,Unknown,0,2013-03-14 10:53:00
6:53 AM,30.0,27.0,88,30.42,10.0,SSE,4.6,-,N/A,,Unknown,160,2013-03-14 11:53:00
7:53 AM,32.0,26.1,79,30.43,10.0,SE,3.5,-,N/A,,Unknown,140,2013-03-14 12:53:00
8:53 AM,37.9,28.9,70,30.42,10.0,SSE,11.5,-,N/A,,Unknown,160,2013-03-14 13:53:00
9:53 AM,43.0,27.0,53,30.42,10.0,SSE,10.4,-,N/A,,Unknown,150,2013-03-14 14:53:00
10:53 AM,46.9,27.0,46,30.41,10.0,South,9.2,-,N/A,,Clear,180,2013-03-14 15:53:00
11:53 AM,50.0,28.9,44,30.40,10.0,South,9.2,-,N/A,,Clear,180,2013-03-14 16:53:00
12:53 PM,54.0,32.0,43,30.35,10.0,South,8.1,19.6,N/A,,Clear,180,2013-03-14 17:53:00
1:53 PM,55.0,32.0,42,30.32,10.0,South,13.8,-,N/A,,Clear,180,2013-03-14 18:53:00
2:53 PM,57.0,33.1,40,30.27,10.0,South,15.0,21.9,N/A,,Clear,190,2013-03-14 19:53:00
3:53 PM,59.0,33.1,38,30.25,10.0,SSW,13.8,-,N/A,,Clear,200,2013-03-14 20:53:00
4:53 PM,59.0,36.0,42,30.22,10.0,SSW,11.5,-,N/A,,Clear,200,2013-03-14 21:53:00
5:53 PM,59.0,36.0,42,30.21,10.0,SSW,10.4,-,N/A,,Clear,200,2013-03-14 22:53:00
6:19 PM,57.2,37.4,48,30.19,10.0,South,11.5,-,N/A,,Partly Cloudy,190,2013-03-14 23:19:00
6:53 PM,55.9,37.0,49,30.19,10.0,South,11.5,-,N/A,,Clear,190,2013-03-14 23:53:00
7:53 PM,50.0,37.9,63,30.18,10.0,South,8.1,-,N/A,,Clear,170,2013-03-15 00:53:00
8:53 PM,48.0,37.9,68,30.18,10.0,South,6.9,-,N/A,,Clear,170,2013-03-15 01:53:00
9:53 PM,48.0,37.9,68,30.17,10.0,South,5.8,-,N/A,,Clear,180,2013-03-15 02:53:00
10:53 PM,46.9,37.9,71,30.17,10.0,South,5.8,-,N/A,,Clear,170,2013-03-15 03:53:00
11:53 PM,45.0,37.0,74,30.17,10.0,South,6.9,-,N/A,,Clear,170,2013-03-15 04:53:00